気象予報士の航空気象 火山灰

*All archives   *Admin

スポンサーサイト

上記の広告は1ヶ月以上更新のないブログに表示されています。
新しい記事を書く事で広告が消せます。
--:--  |  スポンサー広告  |  EDIT  |  Top↑

2015.01.23 (Fri)

桜島、爆発的噴火 噴煙4000m

桜島噴火

鹿児島空港のMetar時系列
RJFK 230300Z 34015KT 9999 FEW035 09/M03 Q1018 RMK 2CU035 A3008
RJFK 230400Z 35011KT 330V030 9999 FEW040 09/M04 Q1018 RMK 1CU040 A3007
RJFK 230500Z 30012KT 9999 FEW040 10/M04 Q1018 RMK 1CU040 A3006 VOLCANIC ASH CLOUD S
RJFK 230600Z 32015KT 9999 FEW040 09/M04 Q1018 RMK 1CU040 A3007 VOLCANIC ASH CLOUD S
RJFK 230700Z 32013KT 9999 FEW040 09/M04 Q1018 RMK 1CU040 A3008 VOLCANIC ASH CLOUD S
RJFK 230800Z 31011KT 9999 FEW050 08/M04 Q1019 RMK 1SC050 A3010 VOLCANIC ASH CLOUD S
RJFK 230900Z 30011KT 9999 FEW050 06/M03 Q1020 RMK 1SC050 A3014 VOLCANIC ASH CLOUD S
RJFK 231000Z 31009KT 9999 FEW050 05/M03 Q1021 RMK 1SC050 A3015
RJFK 231100Z 32006KT CAVOK 03/M03 Q1021 RMK A3017
RJFK 231200Z 31008KT CAVOK 04/M03 Q1021 RMK A3017 VOLCANIC ASH CLOUD SE-S








スポンサーサイト
22:34  |  火山灰  |  TB(0)  |  CM(0)  |  EDIT  |  Top↑

2011.01.28 (Fri)

新燃岳 噴火 火山灰による航空機への影響

 霧島連峰の新燃岳がたいへんなことに。


RJFM 272110Z 29006KT 9999 VA FEW030 03/M04 Q1027 RMK 1CU030 A3035 VOLCANIC ASH CLOUD W-OHD ASH FALL


RJFM 280600Z 21006KT 9999 -SHRA FEW020 SCT025 BKN035 08/03 Q1023 REVA



新燃岳噴火




 宮崎空港は火山灰の影響で遅延や欠航、閉鎖。


火山灰が航空機に及ぼす影響は下記にて。


 ちなみに、車も同じような影響がでます。


無理にワイパーを動かすと、フロントガラスが擦りガラス。


エアーフィルターは”まっくろくろすけ”。下手すらエンジンやられます。


雨が降って水分を含んだ火山灰は硫化物や酸化物を含むため、腐食が進みます。


中途半端に洗うよりもしっかり洗わないと大変なことになります。


火山灰によるスリップも考えられます。


 車の運転にも十分な注意が必要です。


車は身近になりすぎて気づかなくなってますが、万能ではありません。





火山灰が飛行機の運航に影響する理由に興味のある方は、下記をクリック。


過去の火山に関するブログ
浅間山噴火 火山灰と飛行機
浅間山噴火 火山灰と飛行機 その2


ブリティッシュ・エアウェイズ9便エンジン故障事故 ウィキペディアより
ブリティッシュ・エアウェイズ9便エンジン故障事故


 
ブログランキングに参加しています。
にほんブログ村 環境ブログ 天気・気象学へ
にほんブログ村
応援クリックをおねがします。


以下、アフィリエイトサイトです。











20:50  |  火山灰  |  TB(1)  |  CM(0)  |  EDIT  |  Top↑

2010.11.08 (Mon)

日本周辺の火山情報

 火山の影響でジャカルタ線に影響が出ています。


日本航空が飛んでいるジャカルタ線に、来年から全日空が参戦します。


火山以外にもアツイ路線です。


 さて、記憶から遠くなりつつありますが、日本からの航空便で影響のある火山は他にもいくつかあります。


噴火したら、人間の力ではどうすることもできないのですが。。。


日本周辺の火山は東京VAACが管理しています。


シベルーチVA01


東京VAAC ←クリック


 警戒している火山は、北からシベルーチ、桜島、ブルサン。


特に、カムチャッカ半島のシベルーチは活発です。


こいつがちょっとお怒りになると、北米線に多大な影響が出ます。


 ちなみに、日本の気象庁には火山情報を出すだけで、航空便を止める権限はありません。


ヨーロッパでは、火山情報を管理している部門と、航空路を管理している部門の連携が強く、すぐ運航停止になるようです。そのため、去年は迅速な手段がとられたわけです。





火山灰が飛行機の運航に影響する理由に興味のある方は、下記をクリック。


過去の火山に関するブログ
浅間山噴火 火山灰と飛行機
浅間山噴火 火山灰と飛行機 その2


ブリティッシュ・エアウェイズ9便エンジン故障事故 ウィキペディアより
ブリティッシュ・エアウェイズ9便エンジン故障事故



 
 
ブログランキングに参加しています。
にほんブログ村 環境ブログ 天気・気象学へ
にほんブログ村
応援クリックをおねがします。


以下、アフィリエイトサイトです。










10:52  |  火山灰  |  TB(0)  |  CM(0)  |  EDIT  |  Top↑

2010.11.07 (Sun)

ジャワ島で噴火 航空便運航中止

 インドネシア・ジャワ島中部のムラピという山が噴火しています。


その影響が拡大し、かなりの数の航空便が運航をやめています。


 火山の影響は、ヨーロッパで大混乱を起こしたこともあり、またこの東南アジアで、過去においてたいへんな事例も発生していますので、心配です。


このジャワ島周辺はダーウィンにある航空路火山灰情報センターが管理しています。


ジャワVA01



Darwin VAAC ←クリック


ここをクリックして、右やや上の「TEXT」か「Graphic」をクリックすると、火山灰の予測が見られます。



火山灰が飛行機の運航に影響する理由に興味のある方は、下記をクリック。


過去の火山に関するブログ
浅間山噴火 火山灰と飛行機
浅間山噴火 火山灰と飛行機 その2


ブリティッシュ・エアウェイズ9便エンジン故障事故 ウィキペディアより
ブリティッシュ・エアウェイズ9便エンジン故障事故



 
 
ブログランキングに参加しています。
にほんブログ村 環境ブログ 天気・気象学へ
にほんブログ村
応援クリックをおねがします。


以下、アフィリエイトサイトです。










11:01  |  火山灰  |  TB(0)  |  CM(0)  |  EDIT  |  Top↑

2010.05.29 (Sat)

アイスランド火山収束

VA25MAY2010.jpg




いつのまにか、アイスランドの火山灰が収まっていたようですね。


その代わりに、ギリシャの財政に引火。


次は日本かも・・・



欧州火山灰動向予報 ← クリック



VA08MAY2010.jpg


火山灰が飛行機の運航に影響する理由に興味のある方は、下記をクリック。


過去の火山に関するブログ
浅間山噴火 火山灰と飛行機
浅間山噴火 火山灰と飛行機 その2


ブリティッシュ・エアウェイズ9便エンジン故障事故 ウィキペディアより
ブリティッシュ・エアウェイズ9便エンジン故障事故




 
ブログランキングに参加しています。
にほんブログ村 環境ブログ 天気・気象学へ
にほんブログ村
応援クリックをおねがします。


以下、アフィリエイトサイトです。



13:48  |  火山灰  |  TB(0)  |  CM(0)  |  EDIT  |  Top↑
 | BLOGTOP |  NEXT
上記広告は1ヶ月以上更新のないブログに表示されています。新しい記事を書くことで広告を消せます。